Time;durP1;ratioP1;P1;durP2;ratioP2;P2;SDS_P1;SDS_P2;PMS_P1;PMS_P2;Temp;Humidity;BMP_temperature;BMP_pressure;BME280_temperature;BME280_humidity;BME280_pressure;Samples;Min_cycle;Max_cycle;Signal;HPM_P1;HPM_P2
2023/06/10 00:01:37;;;;;;;3.83;3.43;;;;;;;21.23;65.04;99888.19;5032295;28;20468;-48
2023/06/10 00:04:04;;;;;;;3.50;3.20;;;;;;;21.28;65.23;99890.59;5032178;28;20478;-49
2023/06/10 00:06:35;;;;;;;5.60;5.20;;;;;;;21.33;64.97;99893.78;5032212;28;20546;-48
2023/06/10 00:09:04;;;;;;;3.53;3.43;;;;;;;21.35;65.25;99888.25;5032112;28;20484;-48
2023/06/10 00:11:34;;;;;;;4.90;3.37;;;;;;;21.24;65.64;99889.94;5031977;28;20498;-48
2023/06/10 00:14:00;;;;;;;12.20;4.20;;;;;;;21.20;65.78;99893.00;5031998;28;20464;-47
2023/06/10 00:16:27;;;;;;;3.70;3.10;;;;;;;21.24;65.73;99889.06;5032325;28;20479;-49
2023/06/10 00:19:13;;;;;;;4.40;4.00;;;;;;;21.22;65.93;99891.03;5032153;28;20447;-48
2023/06/10 00:21:44;;;;;;;6.53;2.57;;;;;;;21.12;66.36;99885.50;5031733;28;20467;-48
2023/06/10 00:24:14;;;;;;;4.60;3.87;;;;;;;21.14;66.20;99885.38;5032059;28;20447;-47
2023/06/10 00:26:41;;;;;;;4.20;3.90;;;;;;;21.26;65.96;99888.00;5023645;28;20932;-49
2023/06/10 00:29:08;;;;;;;3.70;3.37;;;;;;;21.42;65.30;99884.09;5032072;28;20467;-49
2023/06/10 00:31:35;;;;;;;4.27;3.87;;;;;;;21.25;65.88;99880.88;5031940;28;20503;-48
2023/06/10 00:34:02;;;;;;;3.27;3.00;;;;;;;21.33;66.15;99887.50;5032063;28;20467;-48
2023/06/10 00:36:29;;;;;;;9.93;3.10;;;;;;;21.26;65.88;99889.84;5031838;28;20501;-48
2023/06/10 00:38:56;;;;;;;3.40;3.20;;;;;;;21.29;65.82;99887.75;5031713;28;20820;-49
2023/06/10 00:41:23;;;;;;;5.43;3.60;;;;;;;21.30;65.87;99896.72;5046187;23;20541;-51
2023/06/10 00:43:49;;;;;;;8.93;4.00;;;;;;;21.15;66.83;99897.91;5051726;28;20988;-52
2023/06/10 00:46:16;;;;;;;4.37;4.00;;;;;;;20.95;67.43;99885.94;5051935;28;20494;-51
2023/06/10 00:48:44;;;;;;;7.63;3.03;;;;;;;20.88;67.86;99887.41;5051598;28;20939;-52
2023/06/10 00:51:11;;;;;;;4.83;4.43;;;;;;;20.97;67.59;99892.13;5051378;28;20446;-52
2023/06/10 00:53:40;;;;;;;15.33;3.40;;;;;;;20.89;68.09;99895.41;5051533;28;20504;-51
2023/06/10 00:56:08;;;;;;;4.80;4.40;;;;;;;20.79;68.62;99888.97;5050206;28;20485;-51
2023/06/10 00:58:35;;;;;;;4.40;4.20;;;;;;;20.72;69.99;99903.97;5053441;28;20446;-51
2023/06/10 01:01:03;;;;;;;13.40;4.53;;;;;;;20.87;68.43;99904.63;5055204;28;20497;-52
2023/06/10 01:03:32;;;;;;;3.60;3.30;;;;;;;20.72;68.36;99900.41;5055140;28;20853;-52
2023/06/10 01:06:13;;;;;;;4.40;4.10;;;;;;;20.54;69.27;99903.50;5054920;28;20494;-52
2023/06/10 01:09:02;;;;;;;3.73;3.43;;;;;;;20.62;69.31;99908.34;5055182;28;20530;-51
2023/06/10 01:11:36;;;;;;;3.80;3.60;;;;;;;20.19;71.11;99906.13;5055023;28;20474;-52
2023/06/10 01:14:05;;;;;;;3.93;3.47;;;;;;;19.87;72.32;99916.59;5054913;28;20477;-51
2023/06/10 01:16:32;;;;;;;3.93;3.40;;;;;;;19.71;73.29;99910.59;5054790;28;20449;-51
2023/06/10 01:19:00;;;;;;;5.90;4.50;;;;;;;19.77;73.31;99905.63;5055011;28;20459;-51
2023/06/10 01:21:26;;;;;;;5.17;3.90;;;;;;;19.66;73.82;99910.06;5054661;28;20994;-52
2023/06/10 01:23:55;;;;;;;4.80;4.43;;;;;;;19.51;75.01;99912.00;5054783;28;20482;-51
2023/06/10 01:26:28;;;;;;;5.10;4.80;;;;;;;19.56;74.96;99914.41;5054556;28;21069;-51
2023/06/10 01:29:04;;;;;;;3.60;3.27;;;;;;;19.52;74.89;99916.44;5054624;28;20500;-51
2023/06/10 01:31:47;;;;;;;6.37;3.93;;;;;;;19.70;74.19;99914.25;5054632;28;20577;-52
2023/06/10 01:34:16;;;;;;;7.50;3.97;;;;;;;19.71;74.24;99913.28;5054713;28;20447;-51
2023/06/10 01:36:47;;;;;;;5.60;3.37;;;;;;;19.29;75.86;99912.66;5054397;28;20922;-51
2023/06/10 01:39:20;;;;;;;7.60;5.20;;;;;;;19.28;76.06;99912.78;5054448;28;20451;-51
2023/06/10 01:41:48;;;;;;;6.00;5.03;;;;;;;19.42;76.20;99916.22;5054614;28;20528;-51
2023/06/10 01:44:20;;;;;;;4.70;4.27;;;;;;;19.24;76.63;99913.00;5054388;28;20447;-51
2023/06/10 01:46:46;;;;;;;7.27;4.13;;;;;;;18.88;77.54;99918.25;5041840;28;20547;-51
2023/06/10 01:49:13;;;;;;;3.70;3.37;;;;;;;18.92;77.86;99912.56;5054167;28;20482;-51
2023/06/10 01:51:40;;;;;;;4.40;4.00;;;;;;;18.73;78.84;99908.53;5054131;28;20506;-51
2023/06/10 01:54:06;;;;;;;3.87;3.57;;;;;;;18.80;78.31;99915.22;5054013;28;20944;-51
2023/06/10 01:56:33;;;;;;;5.20;4.87;;;;;;;18.62;79.56;99920.84;5053058;28;20492;-51
2023/06/10 01:59:00;;;;;;;5.30;4.87;;;;;;;18.77;79.13;99912.72;5054176;28;20542;-51
2023/06/10 02:01:26;;;;;;;4.67;3.87;;;;;;;18.93;78.63;99919.66;5054008;28;20529;-51
2023/06/10 02:03:53;;;;;;;5.40;4.87;;;;;;;18.70;79.34;99922.19;5053868;28;20959;-51
2023/06/10 02:06:20;;;;;;;4.17;3.87;;;;;;;18.73;79.93;99916.59;5053864;28;20526;-51
2023/06/10 02:08:46;;;;;;;11.77;4.73;;;;;;;18.57;79.88;99916.75;5053782;28;20504;-51
2023/06/10 02:11:13;;;;;;;4.47;3.97;;;;;;;18.48;80.35;99920.06;5053984;28;20859;-51
2023/06/10 02:13:39;;;;;;;12.83;4.00;;;;;;;18.43;80.51;99919.50;5053801;28;20455;-51
2023/06/10 02:16:06;;;;;;;3.33;3.13;;;;;;;18.19;82.44;99935.44;5053851;28;20544;-51
2023/06/10 02:18:33;;;;;;;9.73;4.50;;;;;;;18.22;81.77;99924.47;5053661;28;20446;-51
2023/06/10 02:21:00;;;;;;;63.43;5.10;;;;;;;18.08;82.01;99932.59;5053532;28;20443;-51
2023/06/10 02:23:26;;;;;;;5.50;5.00;;;;;;;18.00;82.71;99922.34;5053793;28;20506;-51
2023/06/10 02:25:52;;;;;;;7.40;4.30;;;;;;;18.24;81.68;99933.34;5053660;28;20585;-51
2023/06/10 02:28:19;;;;;;;9.90;4.30;;;;;;;18.03;82.56;99933.75;5053617;28;20455;-51
2023/06/10 02:30:46;;;;;;;6.67;4.40;;;;;;;17.81;84.03;99944.16;5053464;28;20490;-51
2023/06/10 02:33:13;;;;;;;5.00;4.50;;;;;;;17.87;83.75;99929.47;5053286;28;20470;-51
2023/06/10 02:35:41;;;;;;;4.63;4.23;;;;;;;17.77;84.58;99931.88;5053318;28;20482;-51
2023/06/10 02:38:07;;;;;;;4.73;4.33;;;;;;;17.83;84.42;99936.88;5053410;28;20450;-51
2023/06/10 02:40:34;;;;;;;5.80;4.63;;;;;;;17.83;83.96;99939.56;5053462;28;20475;-51
2023/06/10 02:43:00;;;;;;;5.27;4.87;;;;;;;17.63;85.27;99945.31;5053061;28;20478;-51
2023/06/10 02:45:27;;;;;;;11.60;5.40;;;;;;;17.68;86.37;99951.25;5053220;28;20462;-51
2023/06/10 02:47:53;;;;;;;6.60;4.07;;;;;;;17.66;85.67;99940.59;5053170;28;20509;-51
2023/06/10 02:50:20;;;;;;;7.63;5.07;;;;;;;17.85;85.08;99953.78;5052999;28;20886;-51
2023/06/10 02:52:46;;;;;;;7.10;5.47;;;;;;;17.42;87.25;99953.78;5052877;28;20467;-51
2023/06/10 02:55:13;;;;;;;6.10;5.50;;;;;;;17.51;86.79;99954.13;5053164;28;20446;-51
2023/06/10 02:57:40;;;;;;;5.77;5.47;;;;;;;17.37;87.56;99952.31;5051487;28;20456;-51
2023/06/10 03:00:10;;;;;;;5.03;4.37;;;;;;;17.52;87.36;99956.72;5052907;28;20493;-51
2023/06/10 03:02:38;;;;;;;5.50;5.10;;;;;;;17.58;86.18;99947.44;5052605;28;21037;-51
2023/06/10 03:05:09;;;;;;;5.77;5.30;;;;;;;17.56;85.87;99954.75;5053013;28;20454;-51
2023/06/10 03:07:37;;;;;;;4.97;4.57;;;;;;;17.31;87.28;99953.56;5052759;28;20536;-51
2023/06/10 03:10:04;;;;;;;4.77;4.07;;;;;;;17.48;86.76;99957.88;5052667;28;20465;-51
2023/06/10 03:12:30;;;;;;;5.70;5.10;;;;;;;17.29;88.23;99954.63;5052571;28;20886;-51
2023/06/10 03:14:57;;;;;;;5.90;4.83;;;;;;;17.30;88.05;99951.84;5052640;28;20481;-51
2023/06/10 03:17:24;;;;;;;7.07;5.37;;;;;;;17.30;87.59;99956.34;5052469;28;20810;-51
2023/06/10 03:19:50;;;;;;;4.37;4.17;;;;;;;16.82;89.03;99956.53;5052689;28;20827;-51
2023/06/10 03:22:17;;;;;;;7.33;5.10;;;;;;;17.08;88.66;99951.41;5052142;28;20536;-51
2023/06/10 03:24:46;;;;;;;10.23;4.83;;;;;;;16.87;89.76;99956.28;5052428;28;20447;-51
2023/06/10 03:27:13;;;;;;;4.63;4.43;;;;;;;16.76;89.92;99962.28;5052260;28;20536;-51
2023/06/10 03:29:39;;;;;;;7.20;5.50;;;;;;;16.72;90.22;99962.53;5052377;28;20454;-51
2023/06/10 03:32:06;;;;;;;5.40;5.10;;;;;;;16.67;90.21;99962.81;5052428;28;20521;-51
2023/06/10 03:34:33;;;;;;;4.73;4.33;;;;;;;16.69;90.48;99968.09;5052482;28;20447;-51
2023/06/10 03:37:00;;;;;;;5.83;3.97;;;;;;;16.71;90.32;99964.34;5052338;28;20457;-51
2023/06/10 03:39:28;;;;;;;8.67;6.50;;;;;;;16.78;89.87;99956.81;5052203;28;20508;-51
2023/06/10 03:41:56;;;;;;;5.93;5.40;;;;;;;16.75;89.86;99965.94;5051996;28;20855;-51
2023/06/10 03:44:25;;;;;;;4.73;4.43;;;;;;;16.74;89.61;99971.38;5034390;28;20494;-51
2023/06/10 03:46:53;;;;;;;18.33;4.53;;;;;;;16.66;89.32;99971.78;5052388;28;20987;-51
2023/06/10 03:49:19;;;;;;;5.97;4.40;;;;;;;16.43;90.88;99974.94;5052406;28;20451;-51
2023/06/10 03:51:46;;;;;;;4.30;4.00;;;;;;;16.46;90.70;99974.78;5052260;28;20481;-51
2023/06/10 03:54:12;;;;;;;4.63;4.23;;;;;;;16.59;90.65;99979.34;5052101;28;20447;-51
2023/06/10 03:56:39;;;;;;;4.80;4.50;;;;;;;16.41;91.19;99982.22;5050515;28;20450;-51
2023/06/10 03:59:05;;;;;;;8.67;4.30;;;;;;;16.41;91.41;99976.84;5051941;28;21005;-51
2023/06/10 04:01:33;;;;;;;5.00;4.60;;;;;;;16.38;91.80;99977.03;5052287;28;20470;-51
2023/06/10 04:04:01;;;;;;;4.50;4.20;;;;;;;16.45;91.82;99978.44;5051964;28;20447;-51
2023/06/10 04:06:28;;;;;;;16.83;5.47;;;;;;;16.70;90.46;99980.56;5052056;28;20517;-51
2023/06/10 04:08:56;;;;;;;5.53;5.00;;;;;;;16.42;91.39;99982.13;5051903;28;20500;-51
2023/06/10 04:11:26;;;;;;;5.20;4.70;;;;;;;16.74;90.06;99979.44;5051876;28;20485;-51
2023/06/10 04:13:52;;;;;;;7.40;5.23;;;;;;;16.56;91.74;99973.28;5052094;28;20516;-51
2023/06/10 04:16:21;;;;;;;9.60;5.70;;;;;;;16.63;91.49;99973.78;5052116;28;20546;-51
2023/06/10 04:18:47;;;;;;;3.97;3.67;;;;;;;16.54;92.40;99977.88;5051905;28;20454;-51
2023/06/10 04:21:14;;;;;;;5.67;5.37;;;;;;;16.79;91.70;99980.88;5051761;28;20956;-51
2023/06/10 04:23:40;;;;;;;6.20;5.00;;;;;;;16.82;92.26;99987.88;5051791;28;20550;-51
2023/06/10 04:26:07;;;;;;;5.50;5.20;;;;;;;16.70;92.13;99981.41;5051714;28;20483;-51
2023/06/10 04:28:34;;;;;;;5.90;5.50;;;;;;;17.12;90.98;99983.34;5051998;28;20459;-51
2023/06/10 04:31:01;;;;;;;20.50;5.57;;;;;;;17.84;88.00;99987.03;5051847;28;21009;-51
2023/06/10 04:33:28;;;;;;;5.93;5.53;;;;;;;18.51;85.11;99987.16;5053614;28;20584;-51
2023/06/10 04:35:54;;;;;;;4.60;4.30;;;;;;;19.00;82.25;99990.13;5055679;28;20446;-51
2023/06/10 04:38:21;;;;;;;5.73;5.10;;;;;;;19.49;79.90;99986.75;5055515;28;20897;-51
2023/06/10 04:40:48;;;;;;;7.87;4.60;;;;;;;19.99;77.79;99998.47;5055473;28;21007;-51
2023/06/10 04:43:15;;;;;;;6.43;5.83;;;;;;;20.09;76.35;100002.25;5055456;28;20478;-51
2023/06/10 04:45:44;;;;;;;9.67;5.20;;;;;;;20.44;75.25;99998.84;5055558;28;20462;-51
2023/06/10 04:48:11;;;;;;;6.27;5.67;;;;;;;20.52;74.75;99991.03;5055397;28;20542;-51
2023/06/10 04:50:38;;;;;;;5.57;5.10;;;;;;;20.62;73.67;100000.16;5055259;28;20449;-51
2023/06/10 04:53:06;;;;;;;45.20;5.07;;;;;;;21.18;71.56;99995.00;5055073;28;20467;-51
2023/06/10 04:55:34;;;;;;;4.93;4.63;;;;;;;21.18;71.76;99997.69;5055211;28;20472;-52
2023/06/10 04:58:00;;;;;;;4.70;4.40;;;;;;;21.19;71.48;99999.41;5054362;28;20476;-51
2023/06/10 05:00:27;;;;;;;5.20;4.70;;;;;;;21.40;71.17;100002.34;5055270;28;20552;-52
2023/06/10 05:02:53;;;;;;;4.30;4.00;;;;;;;21.69;69.99;100000.91;5055030;28;20466;-51
2023/06/10 05:05:20;;;;;;;5.30;4.90;;;;;;;21.86;69.35;100003.13;5055327;28;20466;-52
2023/06/10 05:07:47;;;;;;;5.97;5.60;;;;;;;21.92;68.98;100006.31;5054730;28;20994;-51
2023/06/10 05:10:14;;;;;;;3.57;3.37;;;;;;;21.98;68.51;100001.28;5054929;28;20866;-52
2023/06/10 05:12:41;;;;;;;5.13;4.33;;;;;;;22.09;67.76;99997.75;5054782;28;20895;-52
2023/06/10 05:15:08;;;;;;;5.60;5.10;;;;;;;22.01;68.76;100001.03;5055083;28;20534;-52
2023/06/10 05:17:35;;;;;;;8.13;5.70;;;;;;;22.12;67.85;100002.91;5054712;28;20443;-51
2023/06/10 05:20:03;;;;;;;4.73;4.37;;;;;;;22.59;66.13;100001.69;5054769;28;20526;-52
2023/06/10 05:22:30;;;;;;;8.60;5.27;;;;;;;22.62;65.90;100006.03;5054919;28;20540;-52
2023/06/10 05:24:56;;;;;;;5.03;4.73;;;;;;;22.89;64.78;100005.56;5054729;28;20451;-51
2023/06/10 05:27:24;;;;;;;5.10;4.77;;;;;;;22.70;65.55;99993.53;5050151;28;20486;-51
2023/06/10 05:29:51;;;;;;;6.37;5.13;;;;;;;23.07;64.46;100000.47;5054650;28;20500;-52
2023/06/10 05:32:18;;;;;;;5.67;5.20;;;;;;;23.26;62.62;99997.88;5054627;28;20503;-52
2023/06/10 05:34:45;;;;;;;6.20;5.47;;;;;;;23.22;63.28;100004.56;5054345;28;20536;-52
2023/06/10 05:37:12;;;;;;;6.03;5.60;;;;;;;23.50;63.24;99998.47;5054589;28;20447;-52
2023/06/10 05:39:39;;;;;;;6.53;5.57;;;;;;;23.27;63.72;99994.16;5054756;28;20485;-52
2023/06/10 05:42:07;;;;;;;4.70;4.37;;;;;;;23.57;62.88;99996.06;5054462;28;20482;-52
2023/06/10 05:44:33;;;;;;;5.53;5.23;;;;;;;23.58;63.48;100004.13;5053762;28;20526;-52
2023/06/10 05:47:00;;;;;;;4.30;4.00;;;;;;;23.70;64.43;100004.91;5054170;28;20577;-52
2023/06/10 05:49:27;;;;;;;6.83;3.97;;;;;;;23.84;61.92;100001.81;5053950;28;21004;-52
2023/06/10 05:51:53;;;;;;;10.03;4.73;;;;;;;23.98;62.34;100002.44;5054304;28;20546;-52
2023/06/10 05:54:20;;;;;;;5.63;4.67;;;;;;;24.40;59.77;100011.38;5054184;28;20455;-52
2023/06/10 05:56:46;;;;;;;10.37;5.20;;;;;;;24.27;61.00;100016.19;5052659;28;20923;-52
2023/06/10 05:59:13;;;;;;;6.60;4.80;;;;;;;24.61;59.05;100014.00;5053951;28;20447;-52
2023/06/10 06:01:39;;;;;;;5.10;4.80;;;;;;;24.59;58.87;100018.72;5053792;28;20467;-52
2023/06/10 06:04:06;;;;;;;5.73;5.23;;;;;;;24.79;59.07;100009.56;5053843;28;20482;-52
2023/06/10 06:06:32;;;;;;;4.07;3.70;;;;;;;25.14;57.02;100022.66;5054146;28;20496;-53
2023/06/10 06:08:59;;;;;;;4.97;4.50;;;;;;;24.78;57.52;100019.59;5053775;28;20936;-52
2023/06/10 06:11:26;;;;;;;4.47;3.47;;;;;;;25.12;57.90;100015.66;5054029;28;20462;-52
2023/06/10 06:13:53;;;;;;;3.70;3.40;;;;;;;25.09;57.76;100020.38;5053768;28;21017;-52
2023/06/10 06:16:19;;;;;;;5.00;4.67;;;;;;;25.15;57.34;100013.50;5053679;28;20831;-52
2023/06/10 06:18:46;;;;;;;6.00;4.10;;;;;;;25.66;55.86;100015.00;5053883;28;20447;-52
2023/06/10 06:21:12;;;;;;;4.30;4.10;;;;;;;25.44;56.64;100015.31;5053870;28;20524;-53
2023/06/10 06:23:39;;;;;;;14.90;4.23;;;;;;;25.28;57.48;100013.19;5053556;28;20957;-52
2023/06/10 06:26:05;;;;;;;3.53;3.33;;;;;;;25.59;56.58;100012.00;5053351;28;20450;-52
2023/06/10 06:28:34;;;;;;;4.23;4.03;;;;;;;25.92;55.40;100013.38;5053521;28;20490;-52
2023/06/10 06:31:01;;;;;;;4.53;3.00;;;;;;;26.50;52.63;100015.00;5053407;28;20506;-52
2023/06/10 06:33:27;;;;;;;3.40;3.10;;;;;;;26.30;52.16;100003.28;5053397;28;20493;-52
2023/06/10 06:35:54;;;;;;;4.10;3.90;;;;;;;26.16;51.88;100011.97;5053391;28;20822;-52
2023/06/10 06:38:20;;;;;;;3.80;3.60;;;;;;;25.79;54.21;100003.81;5053235;28;20474;-52
2023/06/10 06:40:47;;;;;;;3.57;3.33;;;;;;;26.19;52.71;100004.38;5053211;28;20982;-53
2023/06/10 06:43:13;;;;;;;3.00;2.80;;;;;;;26.20;51.35;100006.09;5067080;22;20503;-51
2023/06/10 06:45:40;;;;;;;3.40;3.20;;;;;;;26.21;51.95;100007.81;5053169;28;20455;-50
2023/06/10 06:48:06;;;;;;;3.43;3.23;;;;;;;26.45;52.39;100011.84;5053078;28;20518;-50
2023/06/10 06:50:33;;;;;;;4.57;3.80;;;;;;;26.13;52.49;100021.31;5053234;28;20454;-50
2023/06/10 06:52:59;;;;;;;3.63;3.43;;;;;;;26.35;47.43;100017.34;5053006;28;20477;-50
2023/06/10 06:55:27;;;;;;;2.73;2.53;;;;;;;25.52;47.32;100013.59;5052207;28;20537;-50
2023/06/10 06:57:54;;;;;;;2.70;2.50;;;;;;;26.40;45.89;100015.03;5052973;28;20442;-50
2023/06/10 07:00:20;;;;;;;3.17;2.97;;;;;;;26.42;45.41;100010.28;5053107;28;20505;-50
2023/06/10 07:02:47;;;;;;;3.23;2.93;;;;;;;26.19;45.60;100017.13;5052925;28;20489;-50
2023/06/10 07:05:14;;;;;;;2.83;2.70;;;;;;;26.11;45.82;100025.19;5053081;28;20492;-50
2023/06/10 07:07:41;;;;;;;4.77;4.00;;;;;;;25.90;46.71;100020.81;5052789;28;20482;-50
2023/06/10 07:10:08;;;;;;;5.07;3.53;;;;;;;25.75;46.95;100030.47;5052889;28;20453;-50
2023/06/10 07:12:34;;;;;;;3.77;3.57;;;;;;;25.17;48.23;100029.66;5052591;28;20999;-50
2023/06/10 07:15:01;;;;;;;4.07;3.73;;;;;;;25.12;47.75;100042.84;5052627;28;20458;-50
2023/06/10 07:17:27;;;;;;;3.13;2.80;;;;;;;25.31;47.80;100037.38;5052783;28;20523;-50
2023/06/10 07:19:57;;;;;;;3.57;3.37;;;;;;;25.59;48.05;100036.50;5052638;28;20455;-50
2023/06/10 07:22:23;;;;;;;3.00;2.73;;;;;;;25.99;47.06;100039.00;5052749;28;20529;-50
2023/06/10 07:24:51;;;;;;;3.43;3.13;;;;;;;25.76;45.93;100036.78;5052604;28;20478;-50
2023/06/10 07:27:18;;;;;;;3.33;3.03;;;;;;;25.91;46.65;100036.19;5052577;28;20524;-50
2023/06/10 07:29:45;;;;;;;3.30;3.10;;;;;;;25.93;46.20;100036.03;5052364;28;20451;-50
2023/06/10 07:32:11;;;;;;;3.47;3.27;;;;;;;25.71;47.29;100033.63;5052588;28;20546;-50
2023/06/10 07:34:37;;;;;;;3.60;3.27;;;;;;;25.90;47.33;100033.56;5052401;28;20454;-50
2023/06/10 07:37:04;;;;;;;3.30;3.10;;;;;;;26.06;47.03;100035.69;5052462;28;20610;-50
2023/06/10 07:39:31;;;;;;;3.20;2.63;;;;;;;25.99;46.79;100035.41;5052300;28;20453;-51
2023/06/10 07:41:57;;;;;;;3.40;3.20;;;;;;;26.27;46.64;100026.25;5051967;28;20470;-50
2023/06/10 07:44:24;;;;;;;2.80;2.60;;;;;;;26.16;47.13;100029.16;5052504;28;20447;-50
2023/06/10 07:46:50;;;;;;;3.60;3.40;;;;;;;25.98;46.42;100020.94;5034772;28;20930;-50
2023/06/10 07:49:17;;;;;;;7.83;3.67;;;;;;;25.99;46.94;100024.53;5050149;28;20452;-51
2023/06/10 07:51:43;;;;;;;3.40;3.20;;;;;;;26.47;46.40;100018.03;5034630;28;20473;-50
2023/06/10 07:54:12;;;;;;;4.13;3.83;;;;;;;26.66;45.34;100019.75;5052395;28;20481;-50
2023/06/10 07:56:39;;;;;;;2.27;2.17;;;;;;;26.51;45.49;100019.44;5052033;28;20997;-51
2023/06/10 07:59:05;;;;;;;2.67;2.47;;;;;;;26.09;46.17;100021.75;5052370;28;20421;-50
2023/06/10 08:01:32;;;;;;;3.53;3.03;;;;;;;26.65;45.63;100018.91;5051942;28;20423;-50
2023/06/10 08:03:59;;;;;;;1.90;1.80;;;;;;;26.83;45.30;100022.50;5034401;28;20512;-50
2023/06/10 08:06:26;;;;;;;3.43;3.13;;;;;;;26.78;46.32;100022.13;5052196;28;20794;-50
2023/06/10 08:08:53;;;;;;;3.93;2.80;;;;;;;26.98;45.62;100025.56;5038296;28;20834;-50
2023/06/10 08:11:20;;;;;;;8.73;4.00;;;;;;;27.26;44.54;100023.63;5056308;28;20837;-50
2023/06/10 08:13:47;;;;;;;6.93;3.40;;;;;;;27.01;45.29;100022.56;5056049;28;20560;-50
2023/06/10 08:16:13;;;;;;;2.77;2.57;;;;;;;26.92;44.58;100022.59;5055947;28;20473;-50
2023/06/10 08:18:40;;;;;;;3.07;2.87;;;;;;;26.97;45.34;100031.16;5056148;28;20551;-50
2023/06/10 08:21:06;;;;;;;2.17;2.07;;;;;;;27.33;44.43;100021.13;5056261;28;20454;-50
2023/06/10 08:23:33;;;;;;;4.90;2.63;;;;;;;27.08;44.32;100020.91;5055907;28;20503;-49
2023/06/10 08:25:59;;;;;;;4.13;3.93;;;;;;;27.35;43.68;100025.41;5055857;28;20457;-50
2023/06/10 08:28:26;;;;;;;3.07;2.87;;;;;;;27.51;44.41;100026.56;5055834;28;20496;-50
2023/06/10 08:30:52;;;;;;;7.63;3.10;;;;;;;27.66;43.27;100028.56;5055923;28;20542;-50
2023/06/10 08:33:22;;;;;;;2.87;2.47;;;;;;;27.33;43.73;100027.44;5055556;28;20437;-50
2023/06/10 08:35:49;;;;;;;4.67;3.20;;;;;;;27.30;43.47;100014.13;5056069;28;20812;-50
2023/06/10 08:38:16;;;;;;;3.83;3.63;;;;;;;27.42;43.63;100018.31;5055595;28;20422;-50
2023/06/10 08:40:42;;;;;;;3.00;2.80;;;;;;;28.02;42.27;100012.94;5055538;28;20450;-50
2023/06/10 08:43:33;;;;;;;4.63;4.17;;;;;;;27.37;43.63;100012.47;5055962;28;20453;-50
2023/06/10 08:46:01;;;;;;;6.90;2.67;;;;;;;27.74;42.82;100004.06;5055330;28;20457;-50
2023/06/10 08:48:34;;;;;;;2.93;2.50;;;;;;;27.89;41.70;100012.50;5055221;28;20525;-50
2023/06/10 08:51:04;;;;;;;6.93;2.83;;;;;;;27.66;42.36;100014.91;5055387;28;20422;-50
2023/06/10 08:53:36;;;;;;;3.17;3.03;;;;;;;27.60;43.77;100007.34;5055172;28;20468;-50
2023/06/10 08:56:05;;;;;;;4.07;3.77;;;;;;;27.79;44.07;100011.75;5055338;28;20446;-51
2023/06/10 08:58:41;;;;;;;2.77;2.57;;;;;;;28.52;42.53;100005.84;5055235;28;20489;-50
2023/06/10 09:01:09;;;;;;;3.10;2.37;;;;;;;28.20;42.96;100007.38;5055002;28;20417;-50
2023/06/10 09:03:37;;;;;;;4.27;3.97;;;;;;;28.05;43.29;100006.28;5055305;28;20497;-51
2023/06/10 09:06:07;;;;;;;2.63;2.53;;;;;;;28.07;42.93;100008.84;5054939;28;20823;-50
2023/06/10 09:08:35;;;;;;;3.37;3.17;;;;;;;28.04;42.61;100007.31;5055004;28;20590;-50
2023/06/10 09:11:01;;;;;;;3.80;2.73;;;;;;;28.22;41.28;99996.25;5054857;28;20794;-50
2023/06/10 09:13:29;;;;;;;3.17;2.87;;;;;;;28.39;42.65;100000.84;5054799;28;20477;-50
2023/06/10 09:16:00;;;;;;;3.63;3.23;;;;;;;28.13;43.08;99994.53;5041960;28;20453;-50
2023/06/10 09:18:28;;;;;;;2.40;2.30;;;;;;;28.37;41.35;99991.91;5054241;28;20418;-50
2023/06/10 09:20:54;;;;;;;3.40;3.13;;;;;;;27.84;41.65;99998.50;5054941;28;20453;-50
2023/06/10 09:23:21;;;;;;;3.10;2.90;;;;;;;28.40;42.38;99994.34;5054758;28;20919;-50
2023/06/10 09:25:56;;;;;;;6.67;4.27;;;;;;;28.37;42.35;99999.25;5054630;28;20450;-51
2023/06/10 09:28:23;;;;;;;3.57;3.17;;;;;;;28.49;40.48;99998.78;5054812;28;20490;-50
2023/06/10 09:30:49;;;;;;;4.87;2.23;;;;;;;28.72;39.85;99993.56;5054913;28;20450;-50
2023/06/10 09:33:16;;;;;;;2.50;2.30;;;;;;;28.17;41.37;99995.91;5054518;28;20502;-50
2023/06/10 09:35:47;;;;;;;3.60;3.03;;;;;;;28.33;42.32;99996.00;5054937;28;20528;-50
2023/06/10 09:38:20;;;;;;;14.20;3.70;;;;;;;28.15;41.99;99992.50;5054626;28;20444;-50
2023/06/10 09:40:51;;;;;;;2.63;2.53;;;;;;;28.28;40.24;99985.56;5054414;28;20453;-50
2023/06/10 09:43:18;;;;;;;4.93;3.27;;;;;;;27.96;40.59;99986.28;5054181;28;20865;-51
2023/06/10 09:45:48;;;;;;;4.00;2.73;;;;;;;28.43;40.53;99984.94;5054413;28;20450;-50
2023/06/10 09:48:15;;;;;;;3.57;3.27;;;;;;;28.12;40.60;99987.38;5054688;28;20494;-50
2023/06/10 09:50:43;;;;;;;3.40;3.20;;;;;;;28.41;40.13;99996.06;5054312;28;20453;-50
2023/06/10 09:53:10;;;;;;;11.60;3.27;;;;;;;28.42;40.71;99985.97;5054029;28;20475;-50
2023/06/10 09:55:39;;;;;;;2.33;2.23;;;;;;;28.28;40.71;99982.00;5054741;28;20447;-50
2023/06/10 09:58:05;;;;;;;2.40;2.30;;;;;;;28.46;40.14;99982.72;5054327;28;20417;-50
2023/06/10 10:00:33;;;;;;;3.23;3.03;;;;;;;28.51;41.03;99984.94;5054205;28;20450;-50
2023/06/10 10:03:00;;;;;;;8.10;4.47;;;;;;;28.84;40.08;99981.28;5041218;28;20445;-49
2023/06/10 10:05:27;;;;;;;2.50;2.40;;;;;;;28.59;40.65;99983.09;5054045;28;20475;-49
2023/06/10 10:07:56;;;;;;;3.10;2.63;;;;;;;28.52;40.61;99973.88;5053879;28;20473;-49
2023/06/10 10:10:23;;;;;;;2.33;2.23;;;;;;;28.83;39.48;99986.91;5054291;28;20450;-49
2023/06/10 10:12:56;;;;;;;3.63;2.47;;;;;;;29.09;39.57;99975.88;5054149;28;20470;-49
2023/06/10 10:15:25;;;;;;;2.93;2.73;;;;;;;29.05;39.52;99966.25;5053826;28;20993;-52
2023/06/10 10:18:06;;;;;;;3.40;3.20;;;;;;;28.94;40.35;99966.63;5053862;28;20443;-51
2023/06/10 10:20:37;;;;;;;3.03;2.70;;;;;;;28.95;39.38;99968.31;5053946;28;20474;-51
2023/06/10 10:23:05;;;;;;;3.23;3.03;;;;;;;28.79;39.68;99978.19;5053992;28;20489;-51
2023/06/10 10:25:38;;;;;;;3.30;3.20;;;;;;;28.51;40.27;99974.00;5053641;28;20451;-50
2023/06/10 10:28:12;;;;;;;3.73;3.43;;;;;;;29.27;39.77;99973.78;5046619;28;20498;-49
2023/06/10 10:30:46;;;;;;;3.33;3.17;;;;;;;29.14;40.23;99984.41;5040973;28;20447;-49
2023/06/10 10:33:18;;;;;;;2.87;2.63;;;;;;;29.07;40.29;99972.44;5053455;28;20473;-49
2023/06/10 10:35:46;;;;;;;3.37;3.17;;;;;;;28.87;40.01;99974.63;5053643;28;20470;-50
2023/06/10 10:38:13;;;;;;;3.77;3.53;;;;;;;29.01;39.93;99962.16;5053513;28;20887;-49
2023/06/10 10:40:41;;;;;;;2.60;2.50;;;;;;;29.09;38.67;99971.25;5053641;28;20459;-50
2023/06/10 10:43:09;;;;;;;27.50;3.30;;;;;;;29.02;40.21;99981.16;5052829;28;20524;-50
2023/06/10 10:45:35;;;;;;;3.07;2.90;;;;;;;28.78;39.13;99971.03;5053473;28;20432;-50
2023/06/10 10:48:09;;;;;;;6.97;2.60;;;;;;;29.01;39.34;99973.09;5053099;28;20861;-50
2023/06/10 10:50:36;;;;;;;6.53;3.70;;;;;;;29.49;39.52;99961.31;5053257;28;20412;-57
2023/06/10 10:53:05;;;;;;;6.47;3.47;;;;;;;29.42;39.33;99968.47;5053021;28;20466;-50
2023/06/10 10:55:32;;;;;;;3.10;2.90;;;;;;;29.49;38.70;99964.91;5052696;28;20477;-50
2023/06/10 10:58:00;;;;;;;3.20;3.00;;;;;;;29.30;38.56;99969.84;5052124;28;20445;-50
2023/06/10 11:00:34;;;;;;;3.43;3.20;;;;;;;28.89;38.97;99967.09;5053002;28;20421;-50
2023/06/10 11:03:07;;;;;;;2.53;2.30;;;;;;;28.70;38.24;99961.94;5053120;28;20462;-50
2023/06/10 11:05:44;;;;;;;2.27;2.17;;;;;;;28.89;38.75;99951.53;5052855;28;20447;-50
2023/06/10 11:08:11;;;;;;;2.20;2.10;;;;;;;28.97;38.72;99964.38;5052726;28;21065;-50
2023/06/10 11:10:50;;;;;;;2.60;2.40;;;;;;;28.84;39.30;99955.78;5052593;28;20534;-49
2023/06/10 11:13:19;;;;;;;6.73;3.37;;;;;;;29.53;39.32;99946.22;5052825;28;20462;-50
2023/06/10 11:15:50;;;;;;;2.67;2.57;;;;;;;29.30;38.48;99947.94;5052734;28;20545;-50
2023/06/10 11:18:28;;;;;;;2.63;2.53;;;;;;;29.61;38.73;99942.63;5052766;28;20923;-50
2023/06/10 11:20:57;;;;;;;3.07;2.80;;;;;;;29.67;38.32;99945.50;5052840;28;20454;-50
2023/06/10 11:23:24;;;;;;;2.73;2.63;;;;;;;29.90;38.13;99948.38;5052404;28;20463;-50
2023/06/10 11:25:51;;;;;;;4.60;4.30;;;;;;;29.79;37.58;99930.41;5049892;28;20452;-50
2023/06/10 11:28:19;;;;;;;4.03;3.63;;;;;;;29.92;38.13;99934.47;5047661;28;20999;-50
2023/06/10 11:30:46;;;;;;;4.03;3.73;;;;;;;29.88;38.23;99944.94;5052631;28;20425;-50
2023/06/10 11:33:17;;;;;;;3.50;2.77;;;;;;;29.64;38.21;99942.28;5052082;28;20878;-50